createdAt,value
2022-12-07T00:00:44.585Z,40.30
2022-12-07T00:03:17.667Z,37.20
2022-12-07T00:06:08.565Z,17.92
2022-12-07T00:08:42.645Z,14.68
2022-12-07T00:11:30.570Z,13.82
2022-12-07T00:14:13.584Z,15.07
2022-12-07T00:17:07.573Z,14.95
2022-12-07T00:19:54.593Z,17.63
2022-12-07T00:22:27.730Z,19.23
2022-12-07T00:25:14.580Z,17.90
2022-12-07T00:27:47.660Z,17.35
2022-12-07T00:30:34.584Z,18.48
2022-12-07T00:33:07.668Z,18.23
2022-12-07T00:35:54.587Z,16.27
2022-12-07T00:38:27.649Z,16.65
2022-12-07T00:41:18.588Z,16.70
2022-12-07T00:43:53.694Z,17.67
2022-12-07T00:46:40.598Z,15.23
2022-12-07T00:49:13.665Z,14.80
2022-12-07T00:52:00.573Z,14.70
2022-12-07T00:54:33.704Z,14.63
2022-12-07T00:57:20.581Z,16.52
2022-12-07T00:59:56.410Z,15.48
2022-12-07T01:02:43.588Z,15.15
2022-12-07T01:05:16.656Z,15.75
2022-12-07T01:08:03.664Z,14.70
2022-12-07T01:10:37.657Z,14.80
2022-12-07T01:13:24.617Z,14.98
2022-12-07T01:15:57.655Z,14.32
2022-12-07T01:18:44.604Z,15.07
2022-12-07T01:21:36.590Z,14.55
2022-12-07T01:24:23.579Z,15.68
2022-12-07T01:27:04.610Z,15.70
2022-12-07T01:29:58.701Z,15.30
2022-12-07T01:32:52.605Z,14.43
2022-12-07T01:35:41.602Z,14.57
2022-12-07T01:38:14.689Z,13.65
2022-12-07T01:41:03.611Z,13.68
2022-12-07T01:43:38.667Z,15.02
2022-12-07T01:46:25.697Z,14.38
2022-12-07T01:48:58.677Z,14.25
2022-12-07T01:51:48.632Z,15.18
2022-12-07T01:54:30.618Z,16.05
2022-12-07T01:57:25.601Z,14.73
2022-12-07T02:00:14.629Z,15.43
2022-12-07T02:02:58.797Z,15.10
2022-12-07T02:05:48.616Z,14.07
2022-12-07T02:08:29.627Z,15.30
2022-12-07T02:11:24.637Z,14.20
2022-12-07T02:14:12.639Z,16.08
2022-12-07T02:17:01.716Z,15.25
2022-12-07T02:20:18.622Z,14.35
2022-12-07T02:23:25.692Z,16.33
2022-12-07T02:26:37.625Z,15.57
2022-12-07T02:29:28.675Z,15.13
2022-12-07T02:32:33.624Z,15.48
2022-12-07T02:35:21.627Z,15.63
2022-12-07T02:38:25.665Z,17.55
2022-12-07T02:41:26.628Z,17.52
2022-12-07T02:44:20.678Z,15.95
2022-12-07T02:47:17.624Z,15.52
2022-12-07T02:50:11.645Z,16.35
2022-12-07T02:52:58.648Z,14.65
2022-12-07T02:55:45.631Z,15.98
2022-12-07T02:59:03.628Z,15.23
2022-12-07T03:01:51.981Z,17.05
2022-12-07T03:05:22.641Z,16.48
2022-12-07T03:08:18.755Z,16.65
2022-12-07T03:11:15.331Z,15.35
2022-12-07T03:14:11.664Z,15.55
2022-12-07T03:17:23.642Z,15.25
2022-12-07T03:20:13.632Z,15.63
2022-12-07T03:22:56.688Z,15.25
2022-12-07T03:26:00.386Z,15.50
2022-12-07T03:28:59.677Z,16.90
2022-12-07T03:31:50.699Z,17.80
2022-12-07T03:34:38.776Z,20.67
2022-12-07T03:37:36.692Z,22.27
2022-12-07T03:40:26.650Z,18.05
2022-12-07T03:43:21.726Z,16.13
2022-12-07T03:46:43.769Z,13.80
2022-12-07T03:49:31.768Z,14.07
2022-12-07T03:52:44.696Z,13.98
2022-12-07T03:55:32.084Z,14.90
2022-12-07T03:58:22.704Z,19.30
2022-12-07T04:00:56.744Z,25.55
2022-12-07T04:03:45.674Z,21.67
2022-12-07T04:06:25.683Z,21.42
2022-12-07T04:09:21.678Z,16.40
2022-12-07T04:12:08.722Z,15.73
2022-12-07T04:14:49.769Z,15.15
2022-12-07T04:17:37.677Z,14.73
2022-12-07T04:20:12.777Z,14.18
2022-12-07T04:22:59.752Z,13.38
2022-12-07T04:25:32.789Z,13.85
2022-12-07T04:28:19.673Z,12.75
2022-12-07T04:31:01.728Z,13.68
2022-12-07T04:33:48.711Z,13.70
2022-12-07T04:36:29.677Z,16.65
2022-12-07T04:39:28.733Z,15.75
2022-12-07T04:42:05.835Z,14.90
2022-12-07T04:44:53.680Z,17.08
2022-12-07T04:47:26.791Z,15.05
2022-12-07T04:50:13.680Z,16.45
2022-12-07T04:52:47.778Z,15.32
2022-12-07T04:55:34.734Z,12.90
2022-12-07T04:58:15.684Z,13.50
2022-12-07T05:01:09.848Z,14.50
2022-12-07T05:03:57.726Z,13.85
2022-12-07T05:06:31.778Z,15.00
2022-12-07T05:09:19.723Z,14.07
2022-12-07T05:12:01.722Z,13.73
2022-12-07T05:14:55.725Z,15.55
2022-12-07T05:17:49.726Z,14.38
2022-12-07T05:20:42.308Z,16.23
2022-12-07T05:23:15.810Z,13.20
2022-12-07T05:26:02.706Z,14.02
2022-12-07T05:28:35.881Z,13.07
2022-12-07T05:31:23.778Z,15.07
2022-12-07T05:34:00.814Z,14.07
2022-12-07T05:36:47.726Z,13.35
2022-12-07T05:39:27.720Z,14.25
2022-12-07T05:42:22.713Z,12.02
2022-12-07T05:45:10.734Z,13.63
2022-12-07T05:47:44.825Z,14.05
2022-12-07T05:50:31.734Z,14.65
2022-12-07T05:53:04.775Z,14.07
2022-12-07T05:55:51.726Z,14.00
2022-12-07T05:58:43.397Z,14.50
2022-12-07T06:01:29.725Z,14.23
2022-12-07T06:04:02.785Z,14.30
2022-12-07T06:06:49.730Z,14.93
2022-12-07T06:09:22.828Z,14.57
2022-12-07T06:12:29.725Z,14.57
2022-12-07T06:15:09.718Z,15.32
2022-12-07T06:17:56.729Z,16.10
2022-12-07T06:20:36.722Z,17.15
2022-12-07T06:23:23.729Z,16.92
2022-12-07T06:25:56.799Z,17.20
2022-12-07T06:28:50.738Z,16.38
2022-12-07T06:31:39.896Z,22.40
2022-12-07T06:34:16.806Z,19.67
2022-12-07T06:37:03.727Z,19.08
2022-12-07T06:39:36.867Z,19.02
2022-12-07T06:42:23.729Z,22.08
2022-12-07T06:44:56.804Z,22.35
2022-12-07T06:47:44.344Z,20.48
2022-12-07T06:50:19.783Z,16.73
2022-12-07T06:53:06.721Z,14.57
2022-12-07T06:55:39.794Z,15.02
2022-12-07T06:58:26.721Z,16.48
2022-12-07T07:00:59.871Z,16.52
2022-12-07T07:03:46.734Z,17.35
2022-12-07T07:06:21.794Z,16.67
2022-12-07T07:09:08.755Z,15.85
2022-12-07T07:11:41.802Z,14.82
2022-12-07T07:14:29.729Z,15.18
2022-12-07T07:17:02.901Z,17.63
2022-12-07T07:19:51.852Z,16.42
2022-12-07T07:22:31.739Z,17.67
2022-12-07T07:25:28.033Z,16.42
2022-12-07T07:28:24.025Z,17.02
2022-12-07T07:31:19.899Z,20.63
2022-12-07T07:34:06.741Z,19.08
2022-12-07T07:36:46.742Z,20.77
2022-12-07T07:39:36.026Z,19.08
2022-12-07T07:42:17.777Z,23.50
2022-12-07T07:45:11.774Z,26.83
2022-12-07T07:47:58.739Z,22.48
2022-12-07T07:50:31.813Z,20.98
2022-12-07T07:53:18.744Z,20.33
2022-12-07T07:56:06.764Z,21.90
2022-12-07T07:58:53.781Z,16.45
2022-12-07T08:01:26.823Z,14.90
2022-12-07T08:04:13.783Z,16.90
2022-12-07T08:06:53.779Z,15.27
2022-12-07T08:09:47.786Z,16.80
2022-12-07T08:12:34.735Z,17.27
2022-12-07T08:15:14.763Z,15.52
2022-12-07T08:18:01.777Z,17.20
2022-12-07T08:20:48.164Z,19.13
2022-12-07T08:23:41.778Z,18.63
2022-12-07T08:26:28.756Z,17.38
2022-12-07T08:29:22.758Z,16.58
2022-12-07T08:32:10.064Z,17.45
2022-12-07T08:34:49.798Z,16.90
2022-12-07T08:37:43.785Z,18.80
2022-12-07T08:40:37.777Z,18.63
2022-12-07T08:43:24.761Z,16.48
2022-12-07T08:46:09.862Z,17.05
2022-12-07T08:49:18.759Z,17.60
2022-12-07T08:51:51.847Z,16.38
2022-12-07T08:54:43.794Z,16.83
2022-12-07T08:57:17.890Z,17.08
2022-12-07T09:00:05.956Z,18.77
2022-12-07T09:02:39.878Z,18.50
2022-12-07T09:05:26.824Z,16.77
2022-12-07T09:08:07.426Z,18.13
2022-12-07T09:10:53.777Z,17.67
2022-12-07T09:13:26.838Z,17.35
2022-12-07T09:16:13.868Z,16.98
2022-12-07T09:18:46.899Z,17.30
2022-12-07T09:21:33.782Z,17.45
2022-12-07T09:24:13.782Z,18.23
2022-12-07T09:27:07.771Z,16.50
2022-12-07T09:29:54.777Z,20.73
2022-12-07T09:32:28.972Z,17.67
2022-12-07T09:35:15.781Z,16.55
2022-12-07T09:37:48.885Z,17.75
2022-12-07T09:40:35.775Z,18.42
2022-12-07T09:43:15.846Z,16.67
2022-12-07T09:46:10.835Z,16.75
2022-12-07T09:48:58.771Z,17.88
2022-12-07T09:51:38.780Z,17.17
2022-12-07T09:54:25.796Z,17.58
2022-12-07T09:56:58.853Z,16.35
2022-12-07T09:59:46.816Z,17.00
2022-12-07T10:02:37.932Z,15.65
2022-12-07T10:05:33.815Z,15.50
2022-12-07T10:08:06.931Z,15.98
2022-12-07T10:11:03.779Z,16.13
2022-12-07T10:13:46.361Z,16.08
2022-12-07T10:16:32.948Z,17.38
2022-12-07T10:19:41.806Z,16.90
2022-12-07T10:22:31.838Z,16.90
2022-12-07T10:25:23.807Z,16.10
2022-12-07T10:28:35.386Z,17.33
2022-12-07T10:31:28.851Z,17.50
2022-12-07T10:34:07.868Z,17.73
2022-12-07T10:36:54.754Z,19.00
2022-12-07T10:39:38.810Z,18.80
2022-12-07T10:42:43.791Z,17.40
2022-12-07T10:45:46.968Z,16.95
2022-12-07T10:49:03.802Z,17.35
2022-12-07T10:51:51.799Z,13.90
2022-12-07T10:54:47.791Z,16.65
2022-12-07T10:58:22.810Z,16.45
2022-12-07T11:01:30.875Z,15.52
2022-12-07T11:04:21.915Z,15.18
2022-12-07T11:07:18.799Z,16.15
2022-12-07T11:10:13.011Z,14.85
2022-12-07T11:13:40.830Z,15.98
2022-12-07T11:16:38.965Z,22.30
2022-12-07T11:19:40.838Z,22.13
2022-12-07T11:22:23.923Z,38.55
2022-12-07T11:25:28.588Z,18.08
2022-12-07T11:28:11.812Z,19.95
2022-12-07T11:31:17.861Z,17.38
2022-12-07T11:34:18.829Z,34.97
2022-12-07T11:36:56.500Z,30.05
2022-12-07T11:39:47.817Z,29.35
2022-12-07T11:42:27.885Z,29.75
2022-12-07T11:45:33.820Z,22.90
2022-12-07T11:48:13.935Z,17.83
2022-12-07T11:51:04.820Z,30.63
2022-12-07T11:54:03.217Z,21.15
2022-12-07T11:56:50.837Z,17.77
2022-12-07T11:59:30.970Z,18.80
2022-12-07T12:02:31.875Z,21.13
2022-12-07T12:05:23.028Z,21.33
2022-12-07T12:15:55.850Z,19.10
2022-12-07T12:19:25.829Z,20.40
2022-12-07T12:22:08.931Z,22.02
2022-12-07T12:24:59.974Z,20.48
2022-12-07T12:27:36.915Z,20.77
2022-12-07T12:30:46.884Z,19.95
2022-12-07T12:33:35.913Z,20.25
2022-12-07T12:36:25.951Z,19.95
2022-12-07T12:39:16.030Z,20.35
2022-12-07T12:42:05.858Z,19.45
2022-12-07T12:44:38.991Z,18.38
2022-12-07T12:47:48.847Z,18.90
2022-12-07T12:50:33.879Z,19.95
2022-12-07T12:53:39.854Z,18.67
2022-12-07T12:56:35.882Z,19.20
2022-12-07T12:59:37.949Z,19.67
2022-12-07T13:02:36.918Z,19.55
2022-12-07T13:05:17.853Z,18.92
2022-12-07T13:08:34.822Z,18.00
2022-12-07T13:11:27.975Z,20.48
2022-12-07T13:14:49.864Z,21.55
2022-12-07T13:17:37.974Z,20.80
2022-12-07T13:20:51.846Z,22.02
2022-12-07T13:23:28.940Z,43.28
2022-12-07T13:26:29.846Z,50.97
2022-12-07T13:29:19.078Z,95.53
2022-12-07T13:32:06.867Z,65.93
2022-12-07T13:34:45.709Z,44.65
2022-12-07T13:37:38.728Z,26.38
2022-12-07T13:40:28.921Z,21.92
2022-12-07T13:43:23.872Z,21.55
2022-12-07T13:46:10.914Z,21.58
2022-12-07T13:48:57.872Z,23.02
2022-12-07T13:51:35.953Z,21.92
2022-12-07T13:54:22.873Z,21.88
2022-12-07T13:56:59.944Z,19.33
2022-12-07T13:59:46.866Z,24.58
2022-12-07T14:02:35.362Z,23.10
2022-12-07T14:05:31.877Z,22.83
2022-12-07T14:08:13.970Z,21.05
2022-12-07T14:11:03.862Z,19.45
2022-12-07T14:13:52.957Z,19.75
2022-12-07T14:16:42.927Z,25.88
2022-12-07T14:19:57.885Z,24.60
2022-12-07T14:22:52.876Z,23.90
2022-12-07T14:25:50.672Z,24.92
2022-12-07T14:28:47.891Z,22.05
2022-12-07T14:31:41.893Z,22.15
2022-12-07T14:34:29.888Z,22.83
2022-12-07T14:37:02.945Z,20.65
2022-12-07T14:39:49.911Z,22.80
2022-12-07T14:42:22.962Z,23.77
2022-12-07T14:45:10.906Z,27.98
2022-12-07T14:53:57.976Z,33.60
2022-12-07T14:56:44.907Z,35.42
2022-12-07T14:59:24.948Z,29.20
2022-12-07T15:02:12.880Z,37.25
2022-12-07T15:04:46.053Z,46.15
2022-12-07T15:07:33.919Z,47.95
2022-12-07T15:10:07.005Z,43.45
2022-12-07T15:12:53.895Z,39.33
2022-12-07T15:15:33.931Z,35.60
2022-12-07T15:18:20.924Z,33.92
2022-12-07T15:20:54.968Z,31.55
2022-12-07T15:23:41.896Z,34.53
2022-12-07T15:26:17.021Z,38.03
2022-12-07T15:29:03.914Z,44.50
2022-12-07T15:31:55.364Z,47.10
2022-12-07T15:34:40.320Z,43.03
2022-12-07T15:37:20.897Z,43.45
2022-12-07T15:39:53.977Z,36.22
2022-12-07T15:42:40.900Z,34.42
2022-12-07T15:45:22.952Z,35.30
2022-12-07T15:48:27.759Z,31.88
2022-12-07T15:51:13.918Z,22.58
2022-12-07T15:53:54.028Z,18.73
2022-12-07T15:56:33.906Z,20.63
2022-12-07T15:59:13.984Z,31.00
2022-12-07T16:01:53.990Z,29.95
2022-12-07T16:04:34.986Z,28.17
2022-12-07T16:07:15.968Z,43.67
2022-12-07T16:10:02.931Z,38.45
2022-12-07T16:12:56.929Z,41.95
2022-12-07T16:15:54.923Z,31.02
2022-12-07T16:18:48.915Z,26.67
2022-12-07T16:21:42.917Z,23.67
2022-12-07T16:24:29.934Z,23.45
2022-12-07T16:27:09.932Z,27.85
2022-12-07T16:30:03.942Z,21.00
2022-12-07T16:32:50.929Z,31.52
2022-12-07T16:35:24.990Z,30.15
2022-12-07T16:38:11.927Z,22.38
2022-12-07T16:40:51.918Z,25.63
2022-12-07T16:43:46.188Z,23.83
2022-12-07T16:46:32.970Z,17.67
2022-12-07T16:49:12.933Z,18.38
2022-12-07T16:54:52.996Z,25.88
2022-12-07T16:57:39.932Z,20.67
2022-12-07T17:00:14.069Z,20.08
2022-12-07T17:03:02.933Z,25.45
2022-12-07T17:05:42.929Z,38.72
2022-12-07T17:08:36.929Z,46.92
2022-12-07T17:11:29.938Z,34.63
2022-12-07T17:14:21.621Z,29.70
2022-12-07T17:17:07.933Z,31.77
2022-12-07T17:19:41.415Z,23.10
2022-12-07T17:22:27.951Z,53.17
2022-12-07T17:25:07.967Z,46.60
2022-12-07T17:28:01.943Z,37.15
2022-12-07T17:30:48.953Z,38.03
2022-12-07T17:33:28.942Z,43.80
2022-12-07T17:36:26.948Z,36.38
2022-12-07T17:39:18.950Z,40.78
2022-12-07T17:42:16.947Z,24.85
2022-12-07T17:45:10.940Z,33.58
2022-12-07T17:47:57.979Z,34.45
2022-12-07T17:50:49.626Z,35.13
2022-12-07T17:53:35.937Z,31.75
2022-12-07T17:56:27.989Z,36.00
2022-12-07T17:59:15.959Z,32.27
2022-12-07T18:01:49.087Z,32.75
2022-12-07T18:04:35.947Z,33.45
2022-12-07T18:07:15.941Z,31.92
2022-12-07T18:10:02.972Z,36.08
2022-12-07T18:12:36.050Z,35.70
2022-12-07T18:15:22.978Z,32.92
2022-12-07T18:17:56.028Z,32.40
2022-12-07T18:20:42.972Z,34.35
2022-12-07T18:23:22.964Z,38.92
2022-12-07T18:26:16.947Z,37.92
2022-12-07T18:29:12.975Z,39.45
2022-12-07T18:32:00.032Z,34.55
2022-12-07T18:34:33.203Z,41.30
2022-12-07T18:37:19.977Z,29.00
2022-12-07T18:39:53.033Z,42.05
2022-12-07T18:42:39.975Z,46.95
2022-12-07T18:45:16.073Z,62.20
2022-12-07T18:48:02.984Z,54.88
2022-12-07T18:50:36.046Z,63.10
2022-12-07T18:53:22.978Z,55.40
2022-12-07T18:55:56.072Z,54.38
2022-12-07T18:58:42.965Z,61.10
2022-12-07T19:01:23.046Z,63.97
2022-12-07T19:04:16.991Z,52.80
2022-12-07T19:07:10.974Z,53.42
2022-12-07T19:09:57.993Z,54.38
2022-12-07T19:12:31.074Z,59.17
2022-12-07T19:15:19.996Z,89.43
2022-12-07T19:17:53.041Z,76.60
2022-12-07T19:20:39.991Z,73.40
2022-12-07T19:23:13.045Z,72.00
2022-12-07T19:26:01.001Z,62.65
2022-12-07T19:28:34.047Z,55.70
2022-12-07T19:31:21.012Z,57.70
2022-12-07T19:33:54.064Z,53.85
2022-12-07T19:36:41.000Z,45.42
2022-12-07T19:39:15.933Z,48.90
2022-12-07T19:42:03.006Z,43.58
2022-12-07T19:44:36.091Z,37.00
2022-12-07T19:47:24.005Z,42.33
2022-12-07T19:49:57.067Z,41.85
2022-12-07T19:52:44.002Z,40.75
2022-12-07T19:55:17.115Z,40.83
2022-12-07T19:58:04.002Z,40.88
2022-12-07T20:00:44.001Z,71.75
2022-12-07T20:03:32.991Z,70.25
2022-12-07T20:06:06.076Z,43.38
2022-12-07T20:08:54.002Z,46.75
2022-12-07T20:11:45.892Z,49.03
2022-12-07T20:14:32.988Z,65.65
2022-12-07T20:17:06.157Z,50.15
2022-12-07T20:19:53.004Z,57.10
2022-12-07T20:22:32.988Z,61.78
2022-12-07T20:25:20.032Z,58.30
2022-12-07T20:28:18.856Z,60.83
2022-12-07T20:31:15.101Z,61.13
2022-12-07T20:34:09.027Z,67.97
2022-12-07T20:37:02.999Z,57.00
2022-12-07T20:39:50.004Z,60.00
2022-12-07T20:42:44.997Z,51.35
2022-12-07T20:45:39.019Z,52.17
2022-12-07T20:48:33.019Z,66.55
2022-12-07T20:51:27.026Z,72.93
2022-12-07T20:54:14.026Z,66.05
2022-12-07T20:56:48.060Z,71.95
2022-12-07T20:59:39.903Z,56.22
2022-12-07T21:02:19.159Z,63.67
2022-12-07T21:05:06.280Z,69.13
2022-12-07T21:07:47.101Z,58.20
2022-12-07T21:10:41.020Z,53.90
2022-12-07T21:13:28.045Z,61.22
2022-12-07T21:16:01.232Z,54.63
2022-12-07T21:18:48.089Z,56.35
2022-12-07T21:21:33.023Z,55.78
2022-12-07T21:24:20.034Z,51.65
2022-12-07T21:27:00.028Z,50.22
2022-12-07T21:29:54.537Z,51.47
2022-12-07T21:32:41.066Z,57.72
2022-12-07T21:35:22.029Z,58.92
2022-12-07T21:38:16.051Z,63.05
2022-12-07T21:41:03.037Z,58.72
2022-12-07T21:43:36.142Z,100.03
2022-12-07T21:46:31.304Z,113.38
2022-12-07T21:49:11.145Z,102.65
2022-12-07T21:51:58.044Z,95.15
2022-12-07T21:54:38.041Z,88.18
2022-12-07T21:57:25.036Z,93.68
2022-12-07T21:59:58.105Z,94.85
2022-12-07T22:02:45.124Z,92.88
2022-12-07T22:05:18.122Z,84.90
2022-12-07T22:08:05.064Z,69.82
2022-12-07T22:10:38.129Z,60.03
2022-12-07T22:13:25.040Z,61.33
2022-12-07T22:16:05.108Z,59.40
2022-12-07T22:18:59.022Z,55.65
2022-12-07T22:21:46.079Z,66.57
2022-12-07T22:24:20.142Z,67.07
2022-12-07T22:27:07.048Z,74.65
2022-12-07T22:29:40.187Z,60.63
2022-12-07T22:35:27.064Z,63.67
2022-12-07T22:38:21.048Z,68.80
2022-12-07T22:41:25.050Z,52.85
2022-12-07T22:43:58.112Z,60.95
2022-12-07T22:46:45.121Z,58.85
2022-12-07T22:49:22.762Z,55.10
2022-12-07T22:52:12.057Z,68.15
2022-12-07T22:54:45.156Z,61.88
2022-12-07T22:57:32.079Z,52.60
2022-12-07T23:00:05.116Z,57.28
2022-12-07T23:02:52.090Z,57.15
2022-12-07T23:05:25.367Z,60.05
2022-12-07T23:08:12.122Z,55.55
2022-12-07T23:10:57.095Z,62.58
2022-12-07T23:13:51.065Z,54.67
2022-12-07T23:16:39.077Z,48.17
2022-12-07T23:19:12.117Z,51.00
2022-12-07T23:21:59.073Z,44.38
2022-12-07T23:24:40.041Z,47.22
2022-12-07T23:27:34.082Z,46.10
2022-12-07T23:30:21.109Z,44.45
2022-12-07T23:32:54.130Z,43.70
2022-12-07T23:35:41.084Z,44.55
2022-12-07T23:38:21.048Z,48.92
2022-12-07T23:41:13.077Z,49.75
2022-12-07T23:43:54.055Z,42.22
2022-12-07T23:46:48.134Z,48.70
2022-12-07T23:49:35.065Z,49.13
2022-12-07T23:52:08.167Z,57.03
2022-12-07T23:54:55.078Z,65.85
2022-12-07T23:57:28.141Z,63.42
